createdAt,value
2018-03-31T00:02:08.622Z,12.73
2018-03-31T00:04:40.620Z,11.90
2018-03-31T00:07:12.669Z,11.50
2018-03-31T00:09:44.709Z,12.53
2018-03-31T00:12:16.728Z,11.97
2018-03-31T00:14:48.765Z,12.83
2018-03-31T00:17:20.785Z,11.80
2018-03-31T00:19:52.767Z,12.63
2018-03-31T00:22:25.560Z,12.60
2018-03-31T00:24:57.558Z,12.57
2018-03-31T00:27:29.589Z,13.67
2018-03-31T00:30:01.593Z,12.93
2018-03-31T00:32:33.627Z,13.17
2018-03-31T00:35:05.618Z,12.50
2018-03-31T00:37:37.641Z,12.43
2018-03-31T00:40:09.638Z,13.40
2018-03-31T00:42:41.716Z,12.07
2018-03-31T00:45:13.755Z,13.53
2018-03-31T00:47:45.772Z,12.20
2018-03-31T00:50:17.815Z,13.17
2018-03-31T00:52:49.872Z,13.90
2018-03-31T00:55:22.729Z,12.43
2018-03-31T00:57:54.748Z,13.17
2018-03-31T01:00:26.798Z,12.87
2018-03-31T01:02:58.836Z,11.13
2018-03-31T01:05:30.908Z,14.40
2018-03-31T01:08:02.923Z,11.07
2018-03-31T01:10:34.969Z,13.07
2018-03-31T01:13:06.978Z,12.83
2018-03-31T01:15:39.040Z,14.07
2018-03-31T01:18:11.083Z,12.93
2018-03-31T01:20:43.089Z,12.33
2018-03-31T01:23:15.092Z,13.70
2018-03-31T01:25:47.142Z,14.73
2018-03-31T01:28:19.152Z,13.83
2018-03-31T01:30:51.191Z,14.60
2018-03-31T01:33:23.217Z,13.57
2018-03-31T01:35:55.250Z,12.73
2018-03-31T01:38:27.260Z,13.30
2018-03-31T01:40:59.287Z,13.80
2018-03-31T01:43:31.306Z,14.23
2018-03-31T01:46:03.343Z,13.47
2018-03-31T01:48:35.344Z,14.23
2018-03-31T01:51:07.373Z,15.63
2018-03-31T01:53:39.374Z,12.40
2018-03-31T01:56:11.390Z,13.93
2018-03-31T01:58:43.394Z,13.73
2018-03-31T02:01:15.456Z,14.37
2018-03-31T02:03:47.464Z,13.53
2018-03-31T02:06:19.488Z,14.13
2018-03-31T02:08:51.517Z,12.33
2018-03-31T02:11:23.545Z,14.13
2018-03-31T02:13:55.716Z,14.00
2018-03-31T02:16:27.740Z,14.17
2018-03-31T02:18:59.748Z,17.23
2018-03-31T02:21:31.765Z,13.97
2018-03-31T02:24:03.758Z,14.20
2018-03-31T02:26:37.650Z,14.37
2018-03-31T02:29:11.114Z,13.57
2018-03-31T02:31:43.152Z,14.57
2018-03-31T02:34:15.182Z,13.63
2018-03-31T02:36:47.198Z,14.63
2018-03-31T02:39:19.208Z,15.60
2018-03-31T02:41:51.236Z,14.37
2018-03-31T02:44:23.263Z,12.87
2018-03-31T02:46:55.294Z,14.40
2018-03-31T02:49:27.305Z,14.13
2018-03-31T02:51:59.344Z,13.43
2018-03-31T02:54:31.367Z,14.27
2018-03-31T02:57:03.380Z,14.17
2018-03-31T02:59:35.405Z,14.00
2018-03-31T03:02:07.434Z,13.33
2018-03-31T03:04:39.580Z,13.63
2018-03-31T03:07:11.624Z,13.17
2018-03-31T03:09:43.625Z,13.10
2018-03-31T03:12:15.633Z,14.60
2018-03-31T03:14:47.681Z,13.83
2018-03-31T03:17:19.708Z,13.30
2018-03-31T03:19:51.749Z,13.37
2018-03-31T03:22:23.783Z,15.37
2018-03-31T03:24:55.856Z,14.17
2018-03-31T03:27:27.947Z,13.43
2018-03-31T03:29:59.945Z,13.50
2018-03-31T03:32:32.062Z,12.90
2018-03-31T03:35:04.116Z,13.53
2018-03-31T03:37:36.177Z,12.87
2018-03-31T03:40:08.248Z,13.43
2018-03-31T03:42:40.324Z,12.90
2018-03-31T03:45:12.330Z,15.77
2018-03-31T03:47:44.385Z,13.50
2018-03-31T03:50:16.424Z,13.73
2018-03-31T03:52:48.450Z,13.77
2018-03-31T03:55:20.444Z,13.07
2018-03-31T03:57:52.476Z,13.53
2018-03-31T04:00:24.470Z,13.10
2018-03-31T04:02:56.491Z,13.87
2018-03-31T04:05:28.486Z,13.40
2018-03-31T04:08:00.516Z,8.80
2018-03-31T04:10:32.504Z,13.07
2018-03-31T04:13:04.518Z,12.87
2018-03-31T04:15:36.522Z,12.93
2018-03-31T04:18:08.538Z,15.53
2018-03-31T04:20:40.534Z,12.07
2018-03-31T04:23:12.553Z,13.97
2018-03-31T04:25:44.545Z,13.13
2018-03-31T04:28:16.564Z,13.07
2018-03-31T04:30:48.559Z,12.90
2018-03-31T04:33:20.587Z,12.63
2018-03-31T04:35:52.592Z,12.70
2018-03-31T04:38:24.623Z,13.33
2018-03-31T04:40:56.631Z,14.20
2018-03-31T04:43:28.666Z,14.03
2018-03-31T04:46:00.664Z,13.63
2018-03-31T04:48:32.693Z,12.57
2018-03-31T04:51:04.702Z,13.47
2018-03-31T04:53:36.724Z,14.40
2018-03-31T04:56:08.727Z,13.47
2018-03-31T04:58:40.762Z,12.87
2018-03-31T05:01:12.775Z,12.70
2018-03-31T05:03:44.808Z,12.63
2018-03-31T05:06:16.814Z,12.30
2018-03-31T05:08:48.839Z,13.97
2018-03-31T05:11:20.874Z,11.77
2018-03-31T05:13:52.904Z,13.43
2018-03-31T05:16:24.898Z,13.17
2018-03-31T05:18:56.951Z,13.63
2018-03-31T05:21:28.951Z,13.53
2018-03-31T05:24:00.985Z,14.07
2018-03-31T05:26:32.991Z,12.80
2018-03-31T05:29:05.010Z,13.20
2018-03-31T05:31:37.056Z,13.10
2018-03-31T05:34:09.044Z,13.07
2018-03-31T05:36:41.057Z,13.60
2018-03-31T05:39:13.064Z,13.13
2018-03-31T05:41:45.089Z,14.10
2018-03-31T05:44:17.090Z,13.10
2018-03-31T05:46:49.104Z,11.97
2018-03-31T05:49:21.100Z,14.77
2018-03-31T05:51:53.126Z,15.00
2018-03-31T05:54:25.132Z,14.27
2018-03-31T05:56:57.193Z,17.00
2018-03-31T05:59:29.183Z,16.03
2018-03-31T06:02:01.205Z,16.60
2018-03-31T06:04:33.206Z,17.50
2018-03-31T06:07:05.252Z,16.13
2018-03-31T06:09:37.294Z,15.43
2018-03-31T06:12:09.344Z,17.10
2018-03-31T06:14:41.389Z,15.30
2018-03-31T06:17:13.412Z,15.63
2018-03-31T06:19:45.415Z,15.90
2018-03-31T06:22:17.462Z,16.90
2018-03-31T06:24:51.834Z,14.87
2018-03-31T06:27:23.913Z,16.63
2018-03-31T06:29:55.925Z,17.37
2018-03-31T06:32:27.985Z,16.87
2018-03-31T06:34:59.996Z,17.17
2018-03-31T06:37:32.070Z,17.23
2018-03-31T06:40:04.085Z,16.90
2018-03-31T06:42:36.133Z,31.27
2018-03-31T06:45:08.150Z,17.53
2018-03-31T06:47:40.188Z,21.77
2018-03-31T06:50:12.204Z,18.50
2018-03-31T06:52:44.302Z,19.10
2018-03-31T06:55:16.315Z,20.50
2018-03-31T06:57:48.353Z,19.50
2018-03-31T07:00:20.366Z,26.20
2018-03-31T07:02:52.388Z,24.63
2018-03-31T07:05:24.430Z,21.80
2018-03-31T07:07:56.454Z,21.20
2018-03-31T07:10:28.457Z,22.10
2018-03-31T07:13:00.490Z,23.37
2018-03-31T07:15:32.534Z,23.97
2018-03-31T07:18:04.562Z,24.27
2018-03-31T07:20:36.588Z,21.90
2018-03-31T07:23:08.633Z,21.50
2018-03-31T07:25:40.644Z,23.33
2018-03-31T07:28:12.720Z,22.57
2018-03-31T07:30:44.736Z,21.37
2018-03-31T07:33:16.801Z,25.70
2018-03-31T07:35:48.826Z,25.07
2018-03-31T07:38:20.872Z,23.93
2018-03-31T07:40:52.903Z,29.67
2018-03-31T07:43:24.961Z,21.87
2018-03-31T07:45:56.983Z,23.63
2018-03-31T07:48:29.034Z,25.10
2018-03-31T07:51:01.064Z,24.40
2018-03-31T07:53:33.154Z,26.87
2018-03-31T07:56:05.196Z,25.20
2018-03-31T07:58:37.224Z,23.33
2018-03-31T08:01:09.256Z,25.97
2018-03-31T08:03:41.289Z,24.77
2018-03-31T08:06:13.319Z,28.87
2018-03-31T08:08:45.350Z,32.90
2018-03-31T08:11:17.417Z,26.30
2018-03-31T08:13:49.458Z,34.70
2018-03-31T08:16:21.494Z,33.50
2018-03-31T08:18:53.575Z,25.20
2018-03-31T08:21:25.591Z,35.43
2018-03-31T08:23:57.646Z,34.53
2018-03-31T08:26:29.684Z,22.53
2018-03-31T08:29:01.741Z,23.53
2018-03-31T08:31:33.805Z,30.23
2018-03-31T08:34:05.856Z,31.27
2018-03-31T08:36:37.918Z,22.43
2018-03-31T08:39:09.960Z,29.50
2018-03-31T08:41:42.013Z,36.27
2018-03-31T08:44:14.082Z,26.07
2018-03-31T08:46:46.122Z,34.77
2018-03-31T08:49:18.351Z,25.73
2018-03-31T08:51:50.436Z,27.90
2018-03-31T08:54:22.532Z,29.73
2018-03-31T08:56:54.564Z,32.17
2018-03-31T08:59:26.640Z,28.63
2018-03-31T09:01:58.686Z,29.60
2018-03-31T09:04:30.751Z,28.33
2018-03-31T09:07:02.789Z,24.87
2018-03-31T09:09:34.963Z,29.67
2018-03-31T09:12:07.010Z,29.67
2018-03-31T09:14:39.082Z,24.27
2018-03-31T09:17:11.122Z,31.93
2018-03-31T09:19:43.198Z,26.90
2018-03-31T09:22:15.287Z,34.43
2018-03-31T09:24:47.361Z,30.87
2018-03-31T09:27:19.436Z,26.00
2018-03-31T09:29:51.588Z,36.80
2018-03-31T09:32:23.800Z,30.77
2018-03-31T09:34:55.887Z,37.30
2018-03-31T09:37:28.008Z,37.63
2018-03-31T09:40:00.252Z,38.70
2018-03-31T09:42:32.358Z,31.33
2018-03-31T09:45:04.555Z,27.27
2018-03-31T09:47:37.321Z,38.73
2018-03-31T09:50:42.907Z,30.83
2018-03-31T09:54:56.071Z,33.17
2018-03-31T10:00:36.369Z,31.97
2018-03-31T10:03:08.506Z,35.80
2018-03-31T10:05:40.808Z,32.90
2018-03-31T10:08:13.454Z,29.70
2018-03-31T10:10:45.514Z,36.10
2018-03-31T10:13:18.702Z,44.63
2018-03-31T10:15:51.147Z,41.90
2018-03-31T10:18:23.932Z,30.93
2018-03-31T10:20:56.436Z,40.27
2018-03-31T10:23:29.067Z,37.87
2018-03-31T10:26:01.139Z,38.63
2018-03-31T10:28:33.250Z,39.23
2018-03-31T10:31:05.273Z,47.10
2018-03-31T10:33:37.333Z,33.07
2018-03-31T10:36:09.369Z,44.93
2018-03-31T10:38:41.391Z,35.30
2018-03-31T10:41:13.335Z,34.70
2018-03-31T10:43:45.332Z,38.70
2018-03-31T10:46:17.270Z,40.53
2018-03-31T10:48:49.234Z,58.03
2018-03-31T10:51:21.179Z,27.57
2018-03-31T10:53:53.139Z,41.00
2018-03-31T10:56:25.079Z,25.67
2018-03-31T10:58:57.035Z,32.73
2018-03-31T11:01:28.977Z,54.07
2018-03-31T11:04:01.116Z,28.67
2018-03-31T11:06:33.396Z,24.33
2018-03-31T11:09:05.437Z,29.07
2018-03-31T11:11:37.548Z,31.60
2018-03-31T11:14:09.672Z,22.13
2018-03-31T11:16:41.668Z,32.60
2018-03-31T11:19:13.660Z,23.47
2018-03-31T11:21:45.611Z,24.10
2018-03-31T11:24:17.578Z,22.77
2018-03-31T11:26:49.520Z,22.97
2018-03-31T11:29:21.487Z,31.70
2018-03-31T11:31:53.461Z,21.90
2018-03-31T11:34:25.430Z,25.77
2018-03-31T11:36:57.373Z,25.77
2018-03-31T11:39:29.546Z,24.87
2018-03-31T11:42:01.583Z,23.63
2018-03-31T11:44:33.916Z,27.97
2018-03-31T11:47:05.933Z,23.67
2018-03-31T11:49:38.023Z,21.17
2018-03-31T11:52:10.097Z,24.57
2018-03-31T11:54:42.206Z,22.83
2018-03-31T11:57:14.158Z,20.73
2018-03-31T11:59:46.118Z,22.67
2018-03-31T12:02:18.064Z,20.93
2018-03-31T12:04:50.030Z,19.80
2018-03-31T12:07:21.975Z,20.67
2018-03-31T12:09:53.941Z,19.40
2018-03-31T12:12:25.879Z,22.23
2018-03-31T12:14:58.015Z,19.50
2018-03-31T12:17:29.977Z,22.80
2018-03-31T12:20:02.050Z,19.67
2018-03-31T12:22:34.111Z,16.87
2018-03-31T12:25:06.165Z,20.10
2018-03-31T12:27:38.352Z,19.77
2018-03-31T12:30:10.452Z,23.90
2018-03-31T12:32:42.461Z,28.00
2018-03-31T12:35:15.163Z,23.53
2018-03-31T12:37:47.099Z,22.17
2018-03-31T12:40:19.079Z,20.73
2018-03-31T12:42:51.028Z,21.03
2018-03-31T12:45:22.987Z,20.57
2018-03-31T12:47:54.924Z,21.03
2018-03-31T12:50:26.883Z,24.77
2018-03-31T12:52:58.828Z,21.07
2018-03-31T12:55:30.838Z,20.60
2018-03-31T12:58:02.899Z,20.77
2018-03-31T13:00:34.920Z,25.37
2018-03-31T13:03:06.962Z,24.27
2018-03-31T13:05:38.999Z,21.03
2018-03-31T13:08:10.994Z,22.10
2018-03-31T13:10:42.970Z,19.73
2018-03-31T13:13:14.926Z,23.43
2018-03-31T13:15:46.879Z,20.07
2018-03-31T13:18:18.814Z,22.17
2018-03-31T13:20:50.778Z,19.27
2018-03-31T13:23:22.727Z,21.23
2018-03-31T13:25:54.686Z,16.83
2018-03-31T13:28:26.623Z,27.07
2018-03-31T13:30:58.580Z,16.93
2018-03-31T13:33:31.629Z,18.73
2018-03-31T13:36:03.818Z,21.33
2018-03-31T13:38:35.897Z,18.07
2018-03-31T13:41:08.049Z,21.03
2018-03-31T13:43:40.076Z,21.13
2018-03-31T13:46:12.052Z,23.17
2018-03-31T13:48:44.042Z,24.93
2018-03-31T13:51:15.980Z,20.10
2018-03-31T13:53:47.935Z,21.43
2018-03-31T13:56:19.871Z,20.37
2018-03-31T13:58:53.298Z,25.50
2018-03-31T14:01:25.240Z,31.50
2018-03-31T14:06:36.886Z,22.27
2018-03-31T14:09:08.883Z,43.33
2018-03-31T14:11:40.869Z,18.70
2018-03-31T14:14:15.362Z,25.70
2018-03-31T14:16:47.410Z,24.37
2018-03-31T14:19:19.394Z,18.27
2018-03-31T14:21:52.102Z,19.97
2018-03-31T14:24:24.157Z,23.83
2018-03-31T14:26:56.130Z,17.63
2018-03-31T14:29:28.115Z,16.83
2018-03-31T14:32:00.051Z,15.97
2018-03-31T14:34:32.014Z,23.73
2018-03-31T14:37:03.958Z,13.93
2018-03-31T14:39:35.918Z,18.63
2018-03-31T14:42:08.585Z,15.27
2018-03-31T14:44:46.196Z,15.63
2018-03-31T14:47:18.414Z,19.07
2018-03-31T14:49:56.645Z,14.43
2018-03-31T14:52:28.615Z,16.03
2018-03-31T14:55:01.515Z,22.70
2018-03-31T14:57:33.463Z,15.10
2018-03-31T15:00:05.425Z,14.63
2018-03-31T15:02:37.368Z,12.17
2018-03-31T15:05:09.565Z,13.40
2018-03-31T15:07:41.628Z,13.47
2018-03-31T15:10:13.731Z,14.60
2018-03-31T15:12:45.872Z,13.07
2018-03-31T15:15:21.633Z,13.63
2018-03-31T15:17:54.128Z,16.20
2018-03-31T15:20:26.091Z,20.50
2018-03-31T15:22:58.033Z,14.73
2018-03-31T15:25:30.021Z,19.40
2018-03-31T15:28:02.001Z,14.33
2018-03-31T15:30:33.967Z,16.50
2018-03-31T15:33:05.915Z,16.97
2018-03-31T15:35:37.989Z,14.97
2018-03-31T15:38:10.618Z,14.20
2018-03-31T15:40:42.929Z,13.90
2018-03-31T15:43:14.947Z,14.73
2018-03-31T15:45:47.443Z,12.30
2018-03-31T15:48:19.449Z,16.57
2018-03-31T15:50:51.422Z,15.17
2018-03-31T15:53:23.374Z,15.47
2018-03-31T15:55:55.334Z,16.83
2018-03-31T15:58:27.279Z,14.30
2018-03-31T16:00:59.258Z,12.50
2018-03-31T16:03:31.475Z,12.53
2018-03-31T16:06:04.079Z,13.80
2018-03-31T16:08:36.024Z,12.60
2018-03-31T16:11:08.515Z,13.80
2018-03-31T16:13:40.692Z,15.43
2018-03-31T16:16:12.874Z,16.63
2018-03-31T16:18:44.999Z,13.97
2018-03-31T16:21:16.989Z,13.90
2018-03-31T16:23:48.950Z,14.97
2018-03-31T16:26:20.926Z,11.10
2018-03-31T16:28:54.213Z,14.07
2018-03-31T16:31:26.265Z,13.53
2018-03-31T16:33:58.239Z,13.13
2018-03-31T16:36:30.231Z,12.43
2018-03-31T16:39:02.173Z,11.37
2018-03-31T16:41:34.153Z,14.63
2018-03-31T16:44:06.099Z,16.10
2018-03-31T16:46:38.431Z,13.93
2018-03-31T16:49:10.504Z,14.23
2018-03-31T16:51:47.597Z,13.70
2018-03-31T16:54:19.754Z,15.27
2018-03-31T16:56:52.156Z,16.27
2018-03-31T16:59:24.198Z,14.70
2018-03-31T17:01:56.242Z,13.63
2018-03-31T17:04:28.211Z,13.90
2018-03-31T17:07:00.178Z,11.73
2018-03-31T17:09:32.114Z,13.10
2018-03-31T17:12:04.086Z,13.23
2018-03-31T17:14:36.050Z,12.67
2018-03-31T17:17:09.078Z,16.47
2018-03-31T17:19:42.518Z,12.80
2018-03-31T17:22:14.909Z,12.47
2018-03-31T17:24:48.837Z,12.93
2018-03-31T17:27:21.311Z,12.67
2018-03-31T17:29:53.383Z,13.27
2018-03-31T17:32:25.339Z,10.77
2018-03-31T17:34:57.277Z,11.10
2018-03-31T17:37:29.240Z,17.47
2018-03-31T17:40:01.224Z,27.50
2018-03-31T17:42:33.186Z,41.90
2018-03-31T17:45:05.131Z,59.63
2018-03-31T17:47:37.101Z,78.53
2018-03-31T17:50:11.472Z,69.13
2018-03-31T17:52:44.512Z,69.73
2018-03-31T17:55:17.627Z,51.43
2018-03-31T17:57:50.319Z,38.97
2018-03-31T18:00:23.174Z,43.43
2018-03-31T18:02:55.408Z,25.07
2018-03-31T18:05:27.417Z,23.13
2018-03-31T18:07:59.354Z,21.17
2018-03-31T18:10:31.315Z,21.40
2018-03-31T18:13:03.250Z,19.93
2018-03-31T18:15:35.236Z,22.90
2018-03-31T18:18:07.193Z,20.13
2018-03-31T18:20:40.854Z,19.80
2018-03-31T18:23:15.256Z,21.70
2018-03-31T18:25:47.962Z,22.83
2018-03-31T18:28:22.379Z,23.33
2018-03-31T18:30:59.044Z,23.87
2018-03-31T18:33:31.066Z,23.23
2018-03-31T18:36:03.032Z,22.47
2018-03-31T18:38:34.975Z,23.90
2018-03-31T18:41:06.946Z,24.57
2018-03-31T18:43:40.353Z,21.13
2018-03-31T18:46:24.312Z,22.97
2018-03-31T18:48:57.458Z,23.40
2018-03-31T18:51:29.476Z,22.40
2018-03-31T18:54:01.394Z,22.77
2018-03-31T18:56:33.380Z,23.13
2018-03-31T18:59:05.374Z,24.07
2018-03-31T19:01:37.346Z,23.27
2018-03-31T19:04:09.908Z,23.53
2018-03-31T19:06:47.895Z,21.33
2018-03-31T19:09:20.811Z,25.33
2018-03-31T19:11:56.651Z,21.80
2018-03-31T19:14:28.674Z,22.40
2018-03-31T19:17:06.393Z,27.20
2018-03-31T19:19:38.536Z,23.20
2018-03-31T19:22:12.136Z,20.43
2018-03-31T19:24:53.050Z,19.60
2018-03-31T19:27:27.589Z,19.30
2018-03-31T19:29:59.555Z,18.90
2018-03-31T19:32:31.536Z,18.97
2018-03-31T19:35:03.480Z,19.73
2018-03-31T19:37:35.443Z,20.03
2018-03-31T19:40:07.376Z,19.53
2018-03-31T19:42:48.683Z,18.90
2018-03-31T19:45:21.581Z,20.30
2018-03-31T19:47:55.827Z,21.40
2018-03-31T19:50:29.146Z,25.40
2018-03-31T19:53:01.129Z,26.37
2018-03-31T19:55:33.070Z,24.43
2018-03-31T19:58:05.043Z,25.07
2018-03-31T20:00:36.991Z,24.47
2018-03-31T20:03:13.252Z,25.60
2018-03-31T20:05:49.041Z,26.00
2018-03-31T20:08:21.419Z,25.03
2018-03-31T20:10:53.399Z,27.67
2018-03-31T20:13:25.363Z,26.57
2018-03-31T20:15:57.310Z,27.30
2018-03-31T20:18:29.340Z,25.63
2018-03-31T20:21:01.336Z,28.40
2018-03-31T20:23:33.307Z,29.77
2018-03-31T20:26:05.276Z,27.67
2018-03-31T20:28:37.221Z,26.37
2018-03-31T20:31:10.719Z,28.63
2018-03-31T20:33:43.066Z,26.67
2018-03-31T20:36:16.335Z,28.97
2018-03-31T20:38:48.558Z,30.07
2018-03-31T20:41:20.706Z,30.07
2018-03-31T20:43:54.060Z,28.90
2018-03-31T20:46:28.044Z,30.80
2018-03-31T20:48:59.988Z,28.33
2018-03-31T20:51:31.947Z,32.50
2018-03-31T20:54:03.895Z,26.80
2018-03-31T20:56:35.890Z,28.57
2018-03-31T20:59:08.052Z,29.13
2018-03-31T21:01:45.247Z,27.27
2018-03-31T21:04:18.181Z,33.93
2018-03-31T21:06:53.094Z,34.77
2018-03-31T21:09:28.401Z,37.87
2018-03-31T21:12:00.383Z,33.83
2018-03-31T21:14:32.324Z,31.57
2018-03-31T21:17:04.284Z,31.13
2018-03-31T21:19:36.230Z,31.40
2018-03-31T21:22:08.298Z,30.07
2018-03-31T21:24:44.468Z,28.63
2018-03-31T21:27:16.869Z,27.83
2018-03-31T21:29:49.650Z,28.43
2018-03-31T21:32:22.790Z,27.70
2018-03-31T21:34:55.646Z,29.50
2018-03-31T21:37:27.646Z,28.23
2018-03-31T21:39:59.588Z,27.20
2018-03-31T21:42:31.543Z,24.73
2018-03-31T21:45:03.479Z,26.60
2018-03-31T21:47:35.441Z,25.87
2018-03-31T21:50:07.374Z,25.40
2018-03-31T21:52:44.161Z,28.40
2018-03-31T21:55:18.224Z,30.83
2018-03-31T21:57:54.347Z,37.67
2018-03-31T22:00:29.386Z,49.27
2018-03-31T22:03:01.348Z,52.47
2018-03-31T22:05:33.299Z,42.13
2018-03-31T22:08:05.264Z,37.73
2018-03-31T22:10:37.212Z,31.70
2018-03-31T22:13:15.716Z,31.53
2018-03-31T22:15:51.436Z,28.07
2018-03-31T22:18:24.140Z,27.07
2018-03-31T22:20:56.286Z,27.30
2018-03-31T22:23:28.249Z,26.90
2018-03-31T22:26:00.198Z,26.97
2018-03-31T22:28:32.158Z,27.13
2018-03-31T22:31:04.098Z,24.70
2018-03-31T22:33:36.081Z,24.53
2018-03-31T22:36:08.288Z,24.53
2018-03-31T22:38:45.634Z,25.57
2018-03-31T22:41:19.724Z,25.93
2018-03-31T22:43:53.043Z,25.67
2018-03-31T22:46:26.253Z,25.37
2018-03-31T22:48:58.447Z,26.47
2018-03-31T22:51:30.397Z,27.23
2018-03-31T22:54:02.581Z,25.87
2018-03-31T22:56:34.611Z,24.07
2018-03-31T22:59:06.662Z,23.40
2018-03-31T23:01:40.145Z,23.13
2018-03-31T23:04:13.595Z,21.87
2018-03-31T23:06:46.869Z,22.37
2018-03-31T23:09:20.109Z,23.67
2018-03-31T23:11:55.638Z,23.17
2018-03-31T23:14:28.640Z,23.10
2018-03-31T23:17:00.609Z,22.07
2018-03-31T23:19:32.562Z,22.93
2018-03-31T23:22:04.522Z,24.60
2018-03-31T23:24:36.460Z,26.10
2018-03-31T23:27:09.512Z,27.40
2018-03-31T23:29:43.161Z,27.37
2018-03-31T23:32:16.801Z,27.27
2018-03-31T23:34:49.662Z,29.93
2018-03-31T23:37:23.361Z,30.17
2018-03-31T23:39:56.043Z,29.30
2018-03-31T23:42:28.006Z,32.50
2018-03-31T23:44:59.947Z,36.50
2018-03-31T23:47:31.912Z,31.70
2018-03-31T23:50:03.860Z,38.40
2018-03-31T23:52:35.823Z,34.93
2018-03-31T23:55:07.840Z,35.03
2018-03-31T23:57:41.965Z,36.53
